createdAt,value
2017-11-07T00:01:47.715Z,6.30
2017-11-07T00:04:15.215Z,6.30
2017-11-07T00:06:42.689Z,6.20
2017-11-07T00:09:10.158Z,6.20
2017-11-07T00:11:37.645Z,6.20
2017-11-07T00:14:05.381Z,6.30
2017-11-07T00:16:32.849Z,6.30
2017-11-07T00:19:00.341Z,6.30
2017-11-07T00:21:27.813Z,6.40
2017-11-07T00:23:56.051Z,6.40
2017-11-07T00:26:23.537Z,6.40
2017-11-07T00:28:52.066Z,6.50
2017-11-07T00:31:19.554Z,6.50
2017-11-07T00:33:47.024Z,6.50
2017-11-07T00:36:14.494Z,6.50
2017-11-07T00:38:42.748Z,6.50
2017-11-07T00:41:10.214Z,6.50
2017-11-07T00:43:37.696Z,6.50
2017-11-07T00:46:05.974Z,6.50
2017-11-07T00:48:33.454Z,6.50
2017-11-07T00:51:00.925Z,6.50
2017-11-07T00:53:28.409Z,6.50
2017-11-07T00:55:55.878Z,6.50
2017-11-07T00:58:23.734Z,6.40
2017-11-07T01:00:52.037Z,6.50
2017-11-07T01:03:20.273Z,6.50
2017-11-07T01:05:51.729Z,6.50
2017-11-07T01:08:20.014Z,6.40
2017-11-07T01:10:47.489Z,6.40
2017-11-07T01:13:15.742Z,6.50
2017-11-07T01:15:43.218Z,6.50
2017-11-07T01:18:10.706Z,6.50
2017-11-07T01:20:38.177Z,6.50
2017-11-07T01:23:05.706Z,6.50
2017-11-07T01:25:33.964Z,6.50
2017-11-07T01:28:01.433Z,6.50
2017-11-07T01:30:29.666Z,6.60
2017-11-07T01:32:57.161Z,6.60
2017-11-07T01:35:25.811Z,6.60
2017-11-07T01:37:53.277Z,6.60
2017-11-07T01:40:20.770Z,6.60
2017-11-07T01:42:49.376Z,6.60
2017-11-07T01:45:17.692Z,6.50
2017-11-07T01:47:45.185Z,6.50
2017-11-07T01:50:13.431Z,6.50
2017-11-07T01:52:40.898Z,6.50
2017-11-07T01:55:08.393Z,6.50
2017-11-07T01:57:36.090Z,6.50
2017-11-07T02:00:03.577Z,6.50
2017-11-07T02:02:31.045Z,6.50
2017-11-07T02:04:59.304Z,6.50
2017-11-07T02:07:26.774Z,6.50
2017-11-07T02:09:55.009Z,6.50
2017-11-07T02:12:22.500Z,6.50
2017-11-07T02:14:50.746Z,6.50
2017-11-07T02:17:18.221Z,6.50
2017-11-07T02:19:45.714Z,6.60
2017-11-07T02:22:13.185Z,6.50
2017-11-07T02:24:40.658Z,6.40
2017-11-07T02:27:08.145Z,6.50
2017-11-07T02:29:35.877Z,6.50
2017-11-07T02:32:03.370Z,6.50
2017-11-07T02:34:32.355Z,6.50
2017-11-07T02:36:59.821Z,6.50
2017-11-07T02:39:27.321Z,6.40
2017-11-07T02:41:54.798Z,6.40
2017-11-07T02:44:22.269Z,6.50
2017-11-07T02:46:49.757Z,6.50
2017-11-07T02:49:18.627Z,6.60
2017-11-07T02:51:46.122Z,6.60
2017-11-07T02:54:14.368Z,6.40
2017-11-07T02:56:41.846Z,6.40
2017-11-07T02:59:10.098Z,6.50
2017-11-07T03:01:37.566Z,6.50
2017-11-07T03:04:05.497Z,6.50
2017-11-07T03:06:33.694Z,6.50
2017-11-07T03:09:01.171Z,6.50
2017-11-07T03:11:29.429Z,6.40
2017-11-07T03:13:57.674Z,6.50
2017-11-07T03:16:25.161Z,6.50
2017-11-07T03:18:52.633Z,6.50
2017-11-07T03:21:20.105Z,6.60
2017-11-07T03:23:48.358Z,6.60
2017-11-07T03:26:15.832Z,6.60
2017-11-07T03:28:44.093Z,6.70
2017-11-07T03:31:11.567Z,6.70
2017-11-07T03:33:39.809Z,6.60
2017-11-07T03:36:07.289Z,6.70
2017-11-07T03:38:34.758Z,6.70
2017-11-07T03:41:03.018Z,6.70
2017-11-07T03:43:30.493Z,6.70
2017-11-07T03:45:58.733Z,6.70
2017-11-07T03:48:26.241Z,6.70
2017-11-07T03:50:53.715Z,6.80
2017-11-07T03:53:21.189Z,6.80
2017-11-07T03:55:48.674Z,6.80
2017-11-07T03:58:16.155Z,6.80
2017-11-07T04:00:44.408Z,6.80
2017-11-07T04:03:11.884Z,6.80
2017-11-07T04:05:40.122Z,6.60
2017-11-07T04:08:07.624Z,6.60
2017-11-07T04:10:35.121Z,6.70
2017-11-07T04:13:02.613Z,6.60
2017-11-07T04:15:30.095Z,6.60
2017-11-07T04:17:58.333Z,6.40
2017-11-07T04:20:25.825Z,6.40
2017-11-07T04:22:54.066Z,6.40
2017-11-07T04:25:21.537Z,6.40
2017-11-07T04:27:49.109Z,6.40
2017-11-07T04:30:17.349Z,6.40
2017-11-07T04:32:44.823Z,6.40
2017-11-07T04:35:12.317Z,6.40
2017-11-07T04:37:39.789Z,6.40
2017-11-07T04:40:07.258Z,6.40
2017-11-07T04:42:34.753Z,6.30
2017-11-07T04:45:02.222Z,6.20
2017-11-07T04:47:30.485Z,6.20
2017-11-07T04:49:57.957Z,6.20
2017-11-07T04:52:26.198Z,6.10
2017-11-07T04:54:53.690Z,6.10
2017-11-07T04:57:21.166Z,6.10
2017-11-07T04:59:48.637Z,6.10
2017-11-07T05:02:16.125Z,6.10
2017-11-07T05:04:43.597Z,6.10
2017-11-07T05:07:11.070Z,6.10
2017-11-07T05:09:38.562Z,6.10
2017-11-07T05:12:06.034Z,6.10
2017-11-07T05:14:33.509Z,6.10
2017-11-07T05:17:01.026Z,6.10
2017-11-07T05:19:28.625Z,6.10
2017-11-07T05:21:56.093Z,6.10
2017-11-07T05:24:23.589Z,6.10
2017-11-07T05:26:51.825Z,6.10
2017-11-07T05:29:19.325Z,6.10
2017-11-07T05:31:46.811Z,6.10
2017-11-07T05:34:14.286Z,6.10
2017-11-07T05:36:42.038Z,6.10
2017-11-07T05:39:10.432Z,6.10
2017-11-07T05:41:38.143Z,6.10
2017-11-07T05:44:06.405Z,6.20
2017-11-07T05:46:34.653Z,6.20
2017-11-07T05:49:02.145Z,6.20
2017-11-07T05:51:29.627Z,6.20
2017-11-07T05:53:57.097Z,6.30
2017-11-07T05:56:24.581Z,6.20
2017-11-07T05:58:52.077Z,6.20
2017-11-07T06:01:20.337Z,6.20
2017-11-07T06:03:47.809Z,6.20
2017-11-07T06:06:16.097Z,6.30
2017-11-07T06:08:43.592Z,6.20
2017-11-07T06:11:11.068Z,6.30
2017-11-07T06:13:38.808Z,6.20
2017-11-07T06:16:06.337Z,6.20
2017-11-07T06:18:33.927Z,6.30
2017-11-07T06:21:01.445Z,6.30
2017-11-07T06:23:30.076Z,6.40
2017-11-07T06:25:58.101Z,6.30
2017-11-07T06:28:25.851Z,6.40
2017-11-07T06:30:54.131Z,6.40
2017-11-07T06:33:22.369Z,6.40
2017-11-07T06:35:49.842Z,6.40
2017-11-07T06:38:17.337Z,6.40
2017-11-07T06:40:44.810Z,6.40
2017-11-07T06:43:12.282Z,6.40
2017-11-07T06:45:39.769Z,6.50
2017-11-07T06:48:07.245Z,6.50
2017-11-07T06:50:35.505Z,6.60
2017-11-07T06:53:02.969Z,6.50
2017-11-07T06:55:30.446Z,6.50
2017-11-07T06:57:58.702Z,6.50
2017-11-07T07:00:26.174Z,6.50
2017-11-07T07:02:54.417Z,6.50
2017-11-07T07:05:21.902Z,6.50
2017-11-07T07:07:50.142Z,6.60
2017-11-07T07:10:17.641Z,6.60
2017-11-07T07:12:45.129Z,6.60
2017-11-07T07:15:12.601Z,6.60
2017-11-07T07:17:40.085Z,6.60
2017-11-07T07:20:07.561Z,6.60
2017-11-07T07:22:35.817Z,6.60
2017-11-07T07:25:03.289Z,6.60
2017-11-07T07:27:30.757Z,6.60
2017-11-07T07:29:59.013Z,6.50
2017-11-07T07:32:26.482Z,6.50
2017-11-07T07:34:55.009Z,6.50
2017-11-07T07:37:22.509Z,6.50
2017-11-07T07:39:49.977Z,6.50
2017-11-07T07:42:18.261Z,6.50
2017-11-07T07:44:46.529Z,6.50
2017-11-07T07:47:14.765Z,6.50
2017-11-07T07:49:42.278Z,6.50
2017-11-07T07:52:10.534Z,6.50
2017-11-07T07:54:38.769Z,6.50
2017-11-07T07:57:06.241Z,6.50
2017-11-07T07:59:33.730Z,6.50
2017-11-07T08:02:02.255Z,6.60
2017-11-07T08:04:29.797Z,6.60
2017-11-07T08:06:57.269Z,6.60
2017-11-07T08:09:24.791Z,6.70
2017-11-07T08:11:53.061Z,6.70
2017-11-07T08:14:21.301Z,6.70
2017-11-07T08:16:48.794Z,6.70
2017-11-07T08:19:17.033Z,6.70
2017-11-07T08:21:44.509Z,6.70
2017-11-07T08:24:12.002Z,6.80
2017-11-07T08:26:39.479Z,6.80
2017-11-07T08:29:06.958Z,6.90
2017-11-07T08:31:34.498Z,6.90
2017-11-07T08:34:01.973Z,6.90
2017-11-07T08:36:29.446Z,7.00
2017-11-07T08:38:56.947Z,7.00
2017-11-07T08:41:24.418Z,7.00
2017-11-07T08:43:52.470Z,7.10
2017-11-07T08:46:19.974Z,7.10
2017-11-07T08:48:48.217Z,7.30
2017-11-07T08:51:15.697Z,7.20
2017-11-07T08:53:43.196Z,7.30
2017-11-07T08:56:10.670Z,7.30
2017-11-07T08:58:38.910Z,7.30
2017-11-07T09:01:06.410Z,7.20
2017-11-07T09:03:33.882Z,7.30
2017-11-07T09:06:01.658Z,7.30
2017-11-07T09:08:29.154Z,7.30
2017-11-07T09:10:56.760Z,7.40
2017-11-07T09:13:24.295Z,7.40
2017-11-07T09:15:52.558Z,7.50
2017-11-07T09:18:20.026Z,7.50
2017-11-07T09:20:48.270Z,7.60
2017-11-07T09:23:15.772Z,7.60
2017-11-07T09:25:43.243Z,7.70
2017-11-07T09:28:10.718Z,7.80
2017-11-07T09:30:38.210Z,7.80
2017-11-07T09:33:05.678Z,7.90
2017-11-07T09:35:33.145Z,8.00
2017-11-07T09:38:01.618Z,8.00
2017-11-07T09:40:29.854Z,8.00
2017-11-07T09:42:57.333Z,7.90
2017-11-07T09:45:24.826Z,8.00
2017-11-07T09:47:52.302Z,8.00
2017-11-07T09:50:19.773Z,8.10
2017-11-07T09:52:47.268Z,8.10
2017-11-07T09:55:14.732Z,8.00
2017-11-07T09:57:42.665Z,8.00
2017-11-07T10:00:10.716Z,8.00
2017-11-07T10:02:38.213Z,8.00
2017-11-07T10:05:05.709Z,8.10
2017-11-07T10:07:33.950Z,8.10
2017-11-07T10:10:01.679Z,8.00
2017-11-07T10:12:29.211Z,8.00
2017-11-07T10:14:56.810Z,8.00
2017-11-07T10:17:24.317Z,8.10
2017-11-07T10:19:52.663Z,8.10
2017-11-07T10:22:20.141Z,8.10
2017-11-07T10:24:48.392Z,8.10
2017-11-07T10:27:15.881Z,8.10
2017-11-07T10:29:44.117Z,8.10
2017-11-07T10:32:11.606Z,8.10
2017-11-07T10:34:39.845Z,8.10
2017-11-07T10:37:07.584Z,8.10
2017-11-07T10:39:35.058Z,8.20
2017-11-07T10:42:02.541Z,8.30
2017-11-07T10:44:30.029Z,8.30
2017-11-07T10:46:58.262Z,8.40
2017-11-07T10:49:25.721Z,8.30
2017-11-07T10:51:53.450Z,8.40
2017-11-07T10:54:20.925Z,8.40
2017-11-07T10:56:48.422Z,8.40
2017-11-07T10:59:16.665Z,8.40
2017-11-07T11:01:44.134Z,8.50
2017-11-07T11:04:11.619Z,8.50
2017-11-07T11:06:39.862Z,8.40
2017-11-07T11:09:07.353Z,8.40
2017-11-07T11:11:35.585Z,8.50
2017-11-07T11:14:03.061Z,8.50
2017-11-07T11:16:30.557Z,8.50
2017-11-07T11:18:58.036Z,8.40
2017-11-07T11:21:25.506Z,8.40
2017-11-07T11:23:52.997Z,8.30
2017-11-07T11:26:21.284Z,8.40
2017-11-07T11:28:49.534Z,8.40
2017-11-07T11:31:19.449Z,8.40
2017-11-07T11:33:46.945Z,8.40
2017-11-07T11:36:15.187Z,8.50
2017-11-07T11:38:42.662Z,8.40
2017-11-07T11:41:10.962Z,8.50
2017-11-07T11:43:38.549Z,8.40
2017-11-07T11:46:06.019Z,8.40
2017-11-07T11:48:33.515Z,8.50
2017-11-07T11:51:01.750Z,8.50
2017-11-07T11:53:29.212Z,8.50
2017-11-07T11:55:56.702Z,8.50
2017-11-07T11:58:24.938Z,8.70
2017-11-07T12:00:52.406Z,8.70
2017-11-07T12:03:19.905Z,8.70
2017-11-07T12:05:48.142Z,8.80
2017-11-07T12:08:15.610Z,8.80
2017-11-07T12:10:43.177Z,8.90
2017-11-07T12:13:10.649Z,8.90
2017-11-07T12:15:38.881Z,8.90
2017-11-07T12:18:06.374Z,8.80
2017-11-07T12:20:34.608Z,8.90
2017-11-07T12:23:02.078Z,8.90
2017-11-07T12:25:29.577Z,8.90
2017-11-07T12:27:57.045Z,8.90
2017-11-07T12:30:24.537Z,9.00
2017-11-07T12:32:52.002Z,9.00
2017-11-07T12:35:19.482Z,9.10
2017-11-07T12:37:47.021Z,9.10
2017-11-07T12:40:14.486Z,9.20
2017-11-07T12:42:42.721Z,9.10
2017-11-07T12:45:10.215Z,9.10
2017-11-07T12:47:37.682Z,9.20
2017-11-07T12:50:17.098Z,9.20
2017-11-07T12:52:44.572Z,9.10
2017-11-07T12:55:12.042Z,9.10
2017-11-07T12:57:40.297Z,9.10
2017-11-07T13:00:07.779Z,9.10
2017-11-07T13:02:35.266Z,9.10
2017-11-07T13:05:02.813Z,9.00
2017-11-07T13:07:30.295Z,9.00
2017-11-07T13:09:57.765Z,9.00
2017-11-07T13:12:26.024Z,9.10
2017-11-07T13:14:53.489Z,9.10
2017-11-07T13:17:38.955Z,9.10
2017-11-07T13:20:06.502Z,9.00
2017-11-07T13:22:34.271Z,9.00
2017-11-07T13:25:01.838Z,8.90
2017-11-07T13:27:29.314Z,9.00
2017-11-07T13:29:56.791Z,9.00
2017-11-07T13:32:24.293Z,8.90
2017-11-07T13:34:52.530Z,8.70
2017-11-07T13:37:20.002Z,8.70
2017-11-07T13:39:48.261Z,8.80
2017-11-07T13:42:15.730Z,8.70
2017-11-07T13:44:43.249Z,8.80
2017-11-07T13:47:10.737Z,8.70
2017-11-07T13:49:38.205Z,8.70
2017-11-07T13:52:06.446Z,8.80
2017-11-07T13:54:33.937Z,8.80
2017-11-07T13:57:01.409Z,8.80
2017-11-07T13:59:28.882Z,8.80
2017-11-07T14:01:56.369Z,8.80
2017-11-07T14:04:23.837Z,8.80
2017-11-07T14:06:51.309Z,8.60
2017-11-07T14:09:18.793Z,8.60
2017-11-07T14:11:47.034Z,8.60
2017-11-07T14:14:14.509Z,8.60
2017-11-07T14:16:41.993Z,8.50
2017-11-07T14:19:09.465Z,8.60
2017-11-07T14:21:36.937Z,8.50
2017-11-07T14:24:04.430Z,8.60
2017-11-07T14:26:31.906Z,8.50
2017-11-07T14:29:00.143Z,8.50
2017-11-07T14:31:27.642Z,8.50
2017-11-07T14:33:55.889Z,8.60
2017-11-07T14:36:23.367Z,8.60
2017-11-07T14:38:51.617Z,8.60
2017-11-07T14:41:19.085Z,8.60
2017-11-07T14:43:47.350Z,8.60
2017-11-07T14:46:14.821Z,8.60
2017-11-07T14:48:42.289Z,8.60
2017-11-07T14:51:10.546Z,8.60
2017-11-07T14:53:38.029Z,8.60
2017-11-07T14:56:05.507Z,8.60
2017-11-07T14:58:32.989Z,8.60
2017-11-07T15:01:01.225Z,8.70
2017-11-07T15:03:29.480Z,8.70
2017-11-07T15:05:56.953Z,8.70
2017-11-07T15:08:25.406Z,8.70
2017-11-07T15:10:52.909Z,8.70
2017-11-07T15:13:20.600Z,8.70
2017-11-07T15:15:48.065Z,8.70
2017-11-07T15:18:15.549Z,8.70
2017-11-07T15:20:43.790Z,8.70
2017-11-07T15:23:11.369Z,8.70
2017-11-07T15:25:38.844Z,8.60
2017-11-07T15:28:07.077Z,8.60
2017-11-07T15:30:34.578Z,8.60
2017-11-07T15:33:02.816Z,8.50
2017-11-07T15:35:30.286Z,8.50
2017-11-07T15:37:57.790Z,8.50
2017-11-07T15:40:25.262Z,8.50
2017-11-07T15:42:53.033Z,8.50
2017-11-07T15:45:20.526Z,8.60
2017-11-07T15:47:47.993Z,8.50
2017-11-07T15:50:15.522Z,8.60
2017-11-07T15:52:43.017Z,8.50
2017-11-07T15:55:11.260Z,8.50
2017-11-07T15:57:38.766Z,8.50
2017-11-07T16:00:06.261Z,8.50
2017-11-07T16:02:33.733Z,8.50
2017-11-07T16:05:01.213Z,8.60
2017-11-07T16:07:28.709Z,8.50
2017-11-07T16:09:56.189Z,8.30
2017-11-07T16:12:23.665Z,8.30
2017-11-07T16:14:51.163Z,8.40
2017-11-07T16:17:19.725Z,8.40
2017-11-07T16:19:47.891Z,8.40
2017-11-07T16:22:15.378Z,8.50
2017-11-07T16:24:43.634Z,8.50
2017-11-07T16:27:11.243Z,8.50
2017-11-07T16:29:38.747Z,8.50
2017-11-07T16:32:06.465Z,8.50
2017-11-07T16:34:33.933Z,8.50
2017-11-07T16:37:01.426Z,8.50
2017-11-07T16:39:28.893Z,8.50
2017-11-07T16:41:57.137Z,8.50
2017-11-07T16:44:24.721Z,8.40
2017-11-07T16:46:52.191Z,8.40
2017-11-07T16:49:20.713Z,8.40
2017-11-07T16:51:48.205Z,8.40
2017-11-07T16:54:15.679Z,8.40
2017-11-07T16:56:43.933Z,8.40
2017-11-07T16:59:11.483Z,8.40
2017-11-07T17:01:38.970Z,8.40
2017-11-07T17:04:07.230Z,8.40
2017-11-07T17:06:34.697Z,8.40
2017-11-07T17:09:02.936Z,8.40
2017-11-07T17:11:30.429Z,8.40
2017-11-07T17:13:57.907Z,8.40
2017-11-07T17:16:26.145Z,8.40
2017-11-07T17:18:53.645Z,8.40
2017-11-07T17:21:21.113Z,8.40
2017-11-07T17:23:48.581Z,8.40
2017-11-07T17:26:16.070Z,8.40
2017-11-07T17:28:43.549Z,8.40
2017-11-07T17:31:11.813Z,8.40
2017-11-07T17:33:39.508Z,8.40
2017-11-07T17:36:07.745Z,8.40
2017-11-07T17:38:35.331Z,8.40
2017-11-07T17:41:03.590Z,8.40
2017-11-07T17:43:31.081Z,8.40
2017-11-07T17:45:58.553Z,8.40
2017-11-07T17:48:26.025Z,8.40
2017-11-07T17:50:53.528Z,8.40
2017-11-07T17:53:21.775Z,8.40
2017-11-07T17:55:49.285Z,8.40
2017-11-07T17:58:16.778Z,8.30
2017-11-07T18:00:44.245Z,8.40
2017-11-07T18:03:11.719Z,8.40
2017-11-07T18:05:39.204Z,8.40
2017-11-07T18:08:06.686Z,8.40
2017-11-07T18:10:34.185Z,8.30
2017-11-07T18:13:01.666Z,8.30
2017-11-07T18:15:29.903Z,8.30
2017-11-07T18:17:57.401Z,8.30
2017-11-07T18:20:25.633Z,8.30
2017-11-07T18:22:53.381Z,8.30
2017-11-07T18:25:20.878Z,8.20
2017-11-07T18:27:48.348Z,8.30
2017-11-07T18:30:16.586Z,8.20
2017-11-07T18:32:44.113Z,8.20
2017-11-07T18:35:11.593Z,8.30
2017-11-07T18:37:39.066Z,8.30
2017-11-07T18:40:06.559Z,8.30
2017-11-07T18:42:34.801Z,8.20
2017-11-07T18:45:02.536Z,8.20
2017-11-07T18:47:30.049Z,8.20
2017-11-07T18:49:59.107Z,8.30
2017-11-07T18:52:26.601Z,8.20
2017-11-07T18:54:54.857Z,8.20
2017-11-07T18:57:23.106Z,8.20
2017-11-07T18:59:50.583Z,8.20
2017-11-07T19:02:18.081Z,8.20
2017-11-07T19:04:46.313Z,8.20
2017-11-07T19:07:13.781Z,8.20
2017-11-07T19:09:41.275Z,8.10
2017-11-07T19:12:08.751Z,8.10
2017-11-07T19:14:36.241Z,8.10
2017-11-07T19:17:03.714Z,8.10
2017-11-07T19:19:31.201Z,8.10
2017-11-07T19:21:58.675Z,8.00
2017-11-07T19:24:26.164Z,8.00
2017-11-07T19:26:53.906Z,8.10
2017-11-07T19:29:21.377Z,8.00
2017-11-07T19:31:48.869Z,8.00
2017-11-07T19:34:16.341Z,8.10
2017-11-07T19:36:57.259Z,8.10
2017-11-07T19:39:24.818Z,8.10
2017-11-07T19:41:55.030Z,8.10
2017-11-07T19:44:27.214Z,8.10
2017-11-07T19:46:58.232Z,8.10
2017-11-07T19:49:28.193Z,8.10
2017-11-07T19:51:56.238Z,8.00
2017-11-07T19:54:25.162Z,7.80
2017-11-07T19:56:54.982Z,7.80
2017-11-07T19:59:25.155Z,7.70
2017-11-07T20:01:53.490Z,7.70
2017-11-07T20:04:21.070Z,7.70
2017-11-07T20:06:49.144Z,7.60
2017-11-07T20:09:17.433Z,7.60
2017-11-07T20:11:45.345Z,7.60
2017-11-07T20:14:13.442Z,7.60
2017-11-07T20:16:41.661Z,7.70
2017-11-07T20:19:09.918Z,7.60
2017-11-07T20:21:37.898Z,7.60
2017-11-07T20:24:06.219Z,7.60
2017-11-07T20:26:34.547Z,7.70
2017-11-07T20:29:02.569Z,7.60
2017-11-07T20:31:30.809Z,7.70
2017-11-07T20:33:58.305Z,7.70
2017-11-07T20:36:26.547Z,7.70
2017-11-07T20:38:54.039Z,7.70
2017-11-07T20:41:22.313Z,7.70
2017-11-07T20:43:51.259Z,7.70
2017-11-07T20:46:18.768Z,7.70
2017-11-07T20:48:50.573Z,7.80
2017-11-07T20:51:18.822Z,7.80
2017-11-07T20:53:46.629Z,7.90
2017-11-07T20:56:14.680Z,7.90
2017-11-07T20:58:42.662Z,7.90
2017-11-07T21:01:10.722Z,7.90
2017-11-07T21:03:39.838Z,7.90
2017-11-07T21:06:07.454Z,7.90
2017-11-07T21:08:35.517Z,7.90
2017-11-07T21:11:03.001Z,8.00
2017-11-07T21:13:31.319Z,7.90
2017-11-07T21:15:59.099Z,7.90
2017-11-07T21:18:27.917Z,7.80
2017-11-07T21:20:59.861Z,7.80
2017-11-07T21:23:28.062Z,7.80
2017-11-07T21:25:56.329Z,7.90
2017-11-07T21:28:24.241Z,7.90
2017-11-07T21:30:53.902Z,7.90
2017-11-07T21:33:22.398Z,7.90
2017-11-07T21:35:50.679Z,8.00
2017-11-07T21:38:24.848Z,8.00
2017-11-07T21:40:54.205Z,8.00
2017-11-07T21:43:22.781Z,8.00
2017-11-07T21:45:50.254Z,7.90
2017-11-07T21:48:17.758Z,8.00
2017-11-07T21:50:45.230Z,8.00
2017-11-07T21:53:12.706Z,8.00
2017-11-07T21:55:40.193Z,8.00
2017-11-07T21:58:07.666Z,8.00
2017-11-07T22:00:35.198Z,8.00
2017-11-07T22:03:02.684Z,8.00
2017-11-07T22:05:30.921Z,8.00
2017-11-07T22:07:58.418Z,8.00
2017-11-07T22:10:26.657Z,8.00
2017-11-07T22:12:54.158Z,8.00
2017-11-07T22:15:21.639Z,8.00
2017-11-07T22:17:54.837Z,8.00
2017-11-07T22:20:22.539Z,8.00
2017-11-07T22:22:55.594Z,8.00
2017-11-07T22:25:23.065Z,8.10
2017-11-07T22:27:50.537Z,8.10
2017-11-07T22:30:18.033Z,8.10
2017-11-07T22:32:46.450Z,8.00
2017-11-07T22:35:13.922Z,8.00
2017-11-07T22:37:42.837Z,8.00
2017-11-07T22:40:11.970Z,8.00
2017-11-07T22:42:40.018Z,8.00
2017-11-07T22:45:08.432Z,8.00
2017-11-07T22:47:39.821Z,8.00
2017-11-07T22:50:07.751Z,8.00
2017-11-07T22:52:35.746Z,8.00
2017-11-07T22:55:03.370Z,8.00
2017-11-07T22:57:31.209Z,8.00
2017-11-07T23:00:00.426Z,8.00
2017-11-07T23:02:28.477Z,8.00
2017-11-07T23:04:58.102Z,8.00
2017-11-07T23:07:26.406Z,7.90
2017-11-07T23:12:34.106Z,8.00
2017-11-07T23:15:02.800Z,8.00
2017-11-07T23:17:31.637Z,8.00
2017-11-07T23:20:00.338Z,8.00
2017-11-07T23:22:28.605Z,7.90
2017-11-07T23:24:56.838Z,7.90
2017-11-07T23:27:24.321Z,7.90
2017-11-07T23:29:51.823Z,8.00
2017-11-07T23:32:19.297Z,8.00
2017-11-07T23:34:46.765Z,8.00
2017-11-07T23:37:14.261Z,8.00
2017-11-07T23:39:42.518Z,8.00
2017-11-07T23:42:09.994Z,8.00
2017-11-07T23:44:38.250Z,7.90
2017-11-07T23:47:05.728Z,7.90
2017-11-07T23:49:33.965Z,7.80
2017-11-07T23:52:01.466Z,7.80
2017-11-07T23:54:29.707Z,7.80
2017-11-07T23:56:57.198Z,7.80
2017-11-07T23:59:25.453Z,7.80
